Time;durP1;ratioP1;P1;durP2;ratioP2;P2;SDS_P1;SDS_P2;PMS_P1;PMS_P2;Temp;Humidity;BMP_temperature;BMP_pressure;BME280_temperature;BME280_humidity;BME280_pressure;Samples;Min_cycle;Max_cycle;Signal;HPM_P1;HPM_P2
2024/01/11 10:57:21;;;;;;;;;;;;;;;5.90;74.94;100062.77;106235;1253;60497;-81
2024/01/11 11:00:05;;;;;;;;;;;;;;;6.00;75.09;100061.10;106237;1254;60915;-81
2024/01/11 11:02:45;;;;;;;;;;;;;;;5.59;76.74;100059.75;106289;1260;75383;-81
2024/01/11 11:05:25;;;;;;;;;;;;;;;5.29;80.12;100059.48;106459;1256;71326;-81
2024/01/11 11:08:06;;;;;;;;;;;;;;;5.31;81.40;100057.09;106217;1260;73291;-82
2024/01/11 11:10:47;;;;;;;;;;;;;;;5.33;83.34;100050.00;106213;1256;60555;-83
2024/01/11 11:13:27;;;;;;;;;;;;;;;5.35;84.75;100045.54;106357;1259;60351;-81
2024/01/11 11:16:07;;;;;;;;;;;;;;;5.33;84.57;100037.48;106366;1253;74989;-80
2024/01/11 11:18:47;;;;;;;;;;;;;;;5.24;84.58;100028.61;106321;1260;70108;-80
2024/01/11 11:21:27;;;;;;;;;;;;;;;5.12;85.27;100022.02;106283;1255;74733;-80
2024/01/11 11:24:08;;;;;;;;;;;;;;;5.21;84.59;100017.69;106297;1260;61905;-81
2024/01/11 11:26:48;;;;;;;;;;;;;;;5.31;84.58;100013.79;106378;1257;62079;-81
2024/01/11 11:29:28;;;;;;;;;;;;;;;5.46;83.83;100020.39;106352;1253;74943;-81
2024/01/11 11:32:08;;;;;;;;;;;;;;;5.54;80.79;100016.89;106359;1253;68897;-81
2024/01/11 11:34:44;;;;;;;;;;;;;;;5.56;80.79;100020.01;106365;1256;73398;-81
2024/01/11 11:37:25;;;;;;;;;;;;;;;5.58;80.07;100014.70;106398;1259;60532;-81
2024/01/11 11:39:59;;;;;;;;;;;;;;;5.67;83.49;100004.81;106482;1253;61917;-81
2024/01/11 11:42:40;;;;;;;;;;;;;;;5.65;84.61;100004.63;106586;1256;76160;-81
2024/01/11 11:45:30;;;;;;;;;;;;;;;5.76;83.70;100002.07;106315;1254;68606;-81
2024/01/11 11:48:28;;;;;;;;;;;;;;;5.77;81.34;99999.42;106352;1254;72796;-81
2024/01/11 11:51:11;;;;;;;;;;;;;;;5.84;78.82;99989.88;106294;1256;60578;-81
2024/01/11 11:53:55;;;;;;;;;;;;;;;5.71;82.57;99989.17;106272;1256;62155;-81
2024/01/11 11:56:29;;;;;;;;;;;;;;;5.64;84.77;99986.23;106385;1253;75753;-82
2024/01/11 11:59:03;;;;;;;;;;;;;;;5.70;81.96;99985.20;106042;1260;69890;-82
2024/01/11 12:01:37;;;;;;;;;;;;;;;5.59;80.14;99994.59;106443;1253;75226;-82
2024/01/11 12:04:14;;;;;;;;;;;;;;;5.47;80.85;99996.55;106200;1258;63091;-81
2024/01/11 12:06:54;;;;;;;;;;;;;;;5.45;78.98;99987.42;106555;1254;61151;-82
2024/01/11 12:09:34;;;;;;;;;;;;;;;5.51;80.37;99987.15;106459;1254;72908;-82
2024/01/11 12:12:14;;;;;;;;;;;;;;;5.49;82.31;99983.94;106493;1259;70387;-81
2024/01/11 12:14:55;;;;;;;;;;;;;;;5.56;81.41;99982.86;106285;1256;73091;-82
2024/01/11 12:17:35;;;;;;;;;;;;;;;5.45;81.66;99978.38;106421;1259;60527;-82
2024/01/11 12:20:16;;;;;;;;;;;;;;;5.55;81.96;99978.73;106379;1253;60708;-82
2024/01/11 12:22:56;;;;;;;;;;;;;;;5.51;82.56;99974.91;106467;1253;76140;-82
2024/01/11 12:25:29;;;;;;;;;;;;;;;5.50;80.52;99971.27;106391;1254;68633;-82
2024/01/11 12:28:03;;;;;;;;;;;;;;;5.47;81.71;99967.61;106261;1253;73892;-81
2024/01/11 12:30:44;;;;;;;;;;;;;;;5.25;81.06;99967.34;106300;1254;60553;-81
2024/01/11 12:33:24;;;;;;;;;;;;;;;5.29;80.30;99964.57;106325;1253;60986;-81
2024/01/11 12:36:04;;;;;;;;;;;;;;;5.39;79.37;99971.27;106144;1256;72517;-82
2024/01/11 12:38:44;;;;;;;;;;;;;;;5.34;81.75;99964.51;106552;1259;71072;-81
2024/01/11 12:41:27;;;;;;;;;;;;;;;5.34;81.08;99958.86;106317;1256;77080;-81
2024/01/11 12:44:07;;;;;;;;;;;;;;;5.32;80.96;99957.01;106567;1254;63428;-81
2024/01/11 12:46:46;;;;;;;;;;;;;;;5.33;82.39;99958.80;106385;1254;290863;-82
2024/01/11 12:49:27;;;;;;;;;;;;;;;5.31;83.67;99955.21;106709;1253;74899;-87
2024/01/11 12:52:08;;;;;;;;;;;;;;;5.28;83.11;99946.35;106550;1254;71403;-87
2024/01/11 12:54:49;;;;;;;;;;;;;;;5.36;82.03;99944.91;106425;1254;72194;-86
2024/01/11 12:57:29;;;;;;;;;;;;;;;5.32;81.99;99947.02;106389;1254;60862;-88
2024/01/11 13:00:16;;;;;;;;;;;;;;;5.34;84.57;99946.45;106462;1259;60729;-86
2024/01/11 13:02:56;;;;;;;;;;;;;;;5.35;84.82;99938.77;106473;1259;74883;-86
2024/01/11 13:05:35;;;;;;;;;;;;;;;5.28;84.35;99937.58;106330;1254;70087;-86
2024/01/11 13:08:16;;;;;;;;;;;;;;;5.22;83.92;99931.17;106539;1256;74976;-86
2024/01/11 13:11:01;;;;;;;;;;;;;;;5.16;83.05;99929.60;106381;1257;60606;-86
2024/01/11 13:13:41;;;;;;;;;;;;;;;5.16;82.85;99922.95;106479;1253;62503;-87
2024/01/11 13:16:21;;;;;;;;;;;;;;;5.20;82.85;99924.60;106432;1253;75920;-87
2024/01/11 13:19:01;;;;;;;;;;;;;;;5.29;83.23;99919.16;106355;1253;69307;-86
2024/01/11 13:21:52;;;;;;;;;;;;;;;5.31;82.95;99913.33;106365;1253;75006;-88
2024/01/11 13:24:32;;;;;;;;;;;;;;;4.90;85.24;99909.73;106348;1254;60782;-87
2024/01/11 13:27:11;;;;;;;;;;;;;;;4.90;86.16;99904.05;106466;1253;60856;-87
2024/01/11 13:29:52;;;;;;;;;;;;;;;4.71;86.73;99898.60;106390;1253;76440;-87
2024/01/11 13:32:32;;;;;;;;;;;;;;;4.78;86.20;99894.78;106469;1256;69867;-87
2024/01/11 13:35:12;;;;;;;;;;;;;;;4.79;85.57;99896.67;106338;1254;73497;-87
2024/01/11 13:37:52;;;;;;;;;;;;;;;4.84;84.45;99891.00;106417;1257;60516;-88
2024/01/11 13:40:31;;;;;;;;;;;;;;;4.89;83.37;99887.26;106474;1258;60441;-87
2024/01/11 13:43:11;;;;;;;;;;;;;;;5.08;82.96;99888.58;106726;1259;76168;-87
2024/01/11 13:45:51;;;;;;;;;;;;;;;5.03;84.01;99884.47;106370;1253;68878;-87
2024/01/11 13:48:31;;;;;;;;;;;;;;;5.11;83.96;99873.34;106366;1256;74207;-87
2024/01/11 13:51:07;;;;;;;;;;;;;;;5.15;83.55;99878.13;106349;1256;60755;-86
2024/01/11 13:53:47;;;;;;;;;;;;;;;5.21;80.60;99879.33;106685;1259;61091;-87
2024/01/11 13:56:30;;;;;;;;;;;;;;;5.29;81.29;99881.08;106271;1253;74099;-87
2024/01/11 13:59:04;;;;;;;;;;;;;;;5.30;82.03;99876.75;106271;1259;71065;-87
2024/01/11 14:01:44;;;;;;;;;;;;;;;5.17;80.90;99875.89;106270;1256;74710;-87
2024/01/11 14:04:24;;;;;;;;;;;;;;;5.12;80.09;99871.72;106737;1255;61955;-87
2024/01/11 14:07:04;;;;;;;;;;;;;;;5.10;80.10;99863.58;106251;1259;62303;-87
2024/01/11 14:09:44;;;;;;;;;;;;;;;5.07;81.96;99865.50;106230;1255;74995;-87
2024/01/11 14:12:24;;;;;;;;;;;;;;;4.95;80.10;99874.16;106383;1259;70282;-86
2024/01/11 14:15:03;;;;;;;;;;;;;;;5.03;81.18;99862.92;106755;1255;73599;-86
2024/01/11 14:17:44;;;;;;;;;;;;;;;5.18;80.47;99855.79;106352;1254;60654;-87
2024/01/11 14:20:24;;;;;;;;;;;;;;;5.19;77.11;99856.29;106806;1259;61859;-87
2024/01/11 14:23:04;;;;;;;;;;;;;;;5.22;77.61;99855.33;106234;1259;76017;-87
2024/01/11 14:25:44;;;;;;;;;;;;;;;5.35;79.28;99844.00;106419;1256;69911;-88
2024/01/11 14:28:23;;;;;;;;;;;;;;;5.43;78.84;99841.99;106346;1254;74588;-87
2024/01/11 14:31:05;;;;;;;;;;;;;;;5.54;79.57;99838.87;106342;1253;61201;-88
2024/01/11 14:33:45;;;;;;;;;;;;;;;5.38;80.16;99842.17;106420;1258;60435;-87
2024/01/11 14:36:25;;;;;;;;;;;;;;;5.35;78.63;99851.42;106517;1259;76249;-87
2024/01/11 14:39:05;;;;;;;;;;;;;;;5.38;79.03;99846.94;106533;1254;71291;-87
2024/01/11 14:41:45;;;;;;;;;;;;;;;5.43;76.91;99842.00;106234;1253;74677;-87
2024/01/11 14:44:25;;;;;;;;;;;;;;;5.40;77.59;99840.46;106418;1254;61169;-87
2024/01/11 14:47:06;;;;;;;;;;;;;;;5.34;76.49;99840.58;106796;1254;61754;-88
2024/01/11 14:49:46;;;;;;;;;;;;;;;5.40;76.13;99843.27;106328;1259;76261;-87
2024/01/11 14:52:26;;;;;;;;;;;;;;;5.43;74.65;99844.88;106431;1259;70095;-87
2024/01/11 14:55:06;;;;;;;;;;;;;;;4.87;78.81;99850.85;106469;1254;72251;-86
2024/01/11 14:57:46;;;;;;;;;;;;;;;4.69;80.47;99850.45;106683;1253;60549;-87
2024/01/11 15:00:26;;;;;;;;;;;;;;;4.62;81.07;99842.33;106262;1254;62153;-86
2024/01/11 15:03:06;;;;;;;;;;;;;;;4.51;84.00;99850.53;106567;1253;74052;-86
2024/01/11 15:05:46;;;;;;;;;;;;;;;4.73;83.17;99843.95;106590;1253;70434;-86
2024/01/11 15:08:26;;;;;;;;;;;;;;;4.74;82.98;99846.78;107031;1253;74417;-88
2024/01/11 15:11:06;;;;;;;;;;;;;;;4.69;82.04;99846.08;106234;1254;60510;-87
2024/01/11 15:13:46;;;;;;;;;;;;;;;4.65;82.45;99843.23;106340;1254;61108;-87
2024/01/11 15:16:26;;;;;;;;;;;;;;;4.57;82.69;99841.24;106265;1255;74372;-86
2024/01/11 15:19:06;;;;;;;;;;;;;;;4.61;83.65;99845.34;106455;1260;70639;-87
2024/01/11 15:21:46;;;;;;;;;;;;;;;4.54;83.44;99848.08;106281;1257;74166;-87
2024/01/11 15:24:30;;;;;;;;;;;;;;;4.53;82.94;99844.17;106349;1254;60421;-86
2024/01/11 15:27:10;;;;;;;;;;;;;;;4.59;81.49;99844.13;106433;1253;60781;-86
2024/01/11 15:29:53;;;;;;;;;;;;;;;4.72;81.62;99845.95;106693;1259;76436;-86
2024/01/11 15:32:33;;;;;;;;;;;;;;;4.71;80.10;99846.59;106258;1259;69509;-87
2024/01/11 15:35:13;;;;;;;;;;;;;;;4.67;80.82;99845.59;106312;1259;74997;-87
2024/01/11 15:37:53;;;;;;;;;;;;;;;4.65;80.24;99839.70;106406;1254;61841;-87
2024/01/11 15:40:33;;;;;;;;;;;;;;;4.78;81.11;99841.77;106562;1256;60364;-87
2024/01/11 15:43:13;;;;;;;;;;;;;;;4.79;81.08;99838.27;106535;1257;76047;-87
2024/01/11 15:45:54;;;;;;;;;;;;;;;4.81;79.72;99833.80;106421;1258;71078;-87
2024/01/11 15:48:34;;;;;;;;;;;;;;;4.87;80.78;99827.95;106404;1253;73830;-87
2024/01/11 15:51:14;;;;;;;;;;;;;;;4.97;78.04;99828.46;106343;1254;61533;-87
2024/01/11 15:53:54;;;;;;;;;;;;;;;4.98;79.15;99830.10;106324;1253;62133;-87
2024/01/11 15:56:33;;;;;;;;;;;;;;;4.93;78.66;99830.50;106270;1254;73249;-86
2024/01/11 15:59:13;;;;;;;;;;;;;;;4.93;77.41;99823.29;106368;1253;71401;-87
2024/01/11 16:01:54;;;;;;;;;;;;;;;4.98;78.13;99817.98;106393;1256;73802;-87
2024/01/11 16:04:45;;;;;;;;;;;;;;;4.95;76.93;99822.05;106841;1259;60549;-81
2024/01/11 16:07:25;;;;;;;;;;;;;;;5.00;77.39;99821.39;106452;1254;60903;-80
2024/01/11 16:10:05;;;;;;;;;;;;;;;5.03;76.24;99812.27;106407;1258;76156;-80
2024/01/11 16:12:45;;;;;;;;;;;;;;;4.82;77.35;99810.69;106205;1259;70201;-80
2024/01/11 16:15:26;;;;;;;;;;;;;;;4.72;80.32;99814.06;106693;1259;74597;-80
2024/01/11 16:18:06;;;;;;;;;;;;;;;4.77;80.18;99814.05;106547;1253;60426;-80
2024/01/11 16:20:46;;;;;;;;;;;;;;;4.68;80.44;99804.73;106469;1253;60868;-80
2024/01/11 16:23:26;;;;;;;;;;;;;;;4.67;80.82;99809.25;106264;1257;76421;-81
2024/01/11 16:26:07;;;;;;;;;;;;;;;4.48;81.73;99810.36;106271;1254;68141;-81
2024/01/11 16:28:47;;;;;;;;;;;;;;;4.44;83.63;99815.41;106445;1254;73759;-81
2024/01/11 16:31:28;;;;;;;;;;;;;;;4.55;83.03;99814.98;106478;1259;61570;-79
2024/01/11 16:34:08;;;;;;;;;;;;;;;4.59;82.80;99805.87;106381;1259;60489;-79
2024/01/11 16:36:48;;;;;;;;;;;;;;;4.60;83.26;99804.63;106537;1253;74831;-79
2024/01/11 16:39:28;;;;;;;;;;;;;;;4.68;83.31;99798.71;106279;1253;70437;-80
2024/01/11 16:42:11;;;;;;;;;;;;;;;4.73;82.15;99794.27;106464;1254;74871;-79
2024/01/11 16:44:51;;;;;;;;;;;;;;;4.78;81.34;99790.95;106414;1254;60451;-80
2024/01/11 16:47:36;;;;;;;;;;;;;;;4.85;81.24;99784.92;106295;1259;61623;-79
2024/01/11 16:50:16;;;;;;;;;;;;;;;4.88;80.90;99785.83;106325;1254;76014;-80
2024/01/11 16:52:56;;;;;;;;;;;;;;;4.89;78.70;99779.02;106819;1257;69340;-81
2024/01/11 16:55:36;;;;;;;;;;;;;;;4.95;79.48;99773.34;106894;1257;74600;-80
2024/01/11 16:58:16;;;;;;;;;;;;;;;5.07;78.50;99775.48;107008;1256;61970;-81
2024/01/11 17:00:56;;;;;;;;;;;;;;;5.16;79.08;99792.73;106589;1260;61170;-81
2024/01/11 17:03:36;;;;;;;;;;;;;;;5.14;78.10;99784.74;106699;1253;74009;-81
2024/01/11 17:06:19;;;;;;;;;;;;;;;5.18;76.11;99781.85;106427;1253;69774;-81
2024/01/11 17:09:00;;;;;;;;;;;;;;;5.26;75.87;99773.13;106800;1259;72578;-81
2024/01/11 17:11:40;;;;;;;;;;;;;;;5.28;75.54;99776.02;106438;1254;61387;-81
2024/01/11 17:14:21;;;;;;;;;;;;;;;5.42;74.69;99770.68;106422;1256;60781;-81
2024/01/11 17:17:01;;;;;;;;;;;;;;;5.37;74.59;99761.48;106319;1254;75634;-80
2024/01/11 17:19:43;;;;;;;;;;;;;;;5.27;73.95;99759.10;106466;1258;69381;-81
2024/01/11 17:22:23;;;;;;;;;;;;;;;5.40;73.31;99756.09;106319;1258;75241;-80
2024/01/11 17:25:03;;;;;;;;;;;;;;;5.45;73.35;99751.67;106327;1259;61812;-80
2024/01/11 17:27:43;;;;;;;;;;;;;;;5.41;73.90;99747.64;106370;1254;62002;-79
2024/01/11 17:30:23;;;;;;;;;;;;;;;5.38;74.12;99743.72;106462;1253;75518;-81
2024/01/11 17:33:03;;;;;;;;;;;;;;;5.40;75.15;99745.31;106461;1257;70135;-80
2024/01/11 17:35:45;;;;;;;;;;;;;;;5.44;73.99;99742.23;106180;1254;74874;-81
2024/01/11 17:38:24;;;;;;;;;;;;;;;5.45;74.59;99741.91;106682;1254;62328;-81
2024/01/11 17:41:04;;;;;;;;;;;;;;;5.48;75.24;99738.52;106422;1259;60281;-82
2024/01/11 17:43:47;;;;;;;;;;;;;;;5.44;75.83;99736.27;106470;1259;73843;-80
2024/01/11 17:46:28;;;;;;;;;;;;;;;5.34;75.44;99733.89;106458;1254;69924;-81
2024/01/11 17:49:08;;;;;;;;;;;;;;;5.24;75.01;99736.59;106726;1258;73562;-81
2024/01/11 17:51:48;;;;;;;;;;;;;;;5.22;75.47;99731.77;107122;1253;60485;-82
2024/01/11 17:54:25;;;;;;;;;;;;;;;4.80;79.20;99731.39;106423;1254;60612;-82
